sensor_id;sensor_type;location;lat;lon;timestamp;pressure;altitude;pressure_sealevel;temperature;humidity
37132;BME280;23035;50.032;21.978;2023-06-01T00:01:00;66454.19;;;12.13;100.00
37132;BME280;23035;50.032;21.978;2023-06-01T00:06:20;66433.31;;;11.96;100.00
37132;BME280;23035;50.032;21.978;2023-06-01T00:11:24;66421.06;;;11.87;100.00
37132;BME280;23035;50.032;21.978;2023-06-01T00:16:29;66475.91;;;12.41;100.00
37132;BME280;23035;50.032;21.978;2023-06-01T00:21:35;66532.06;;;12.87;100.00
37132;BME280;23035;50.032;21.978;2023-06-01T00:26:39;66442.53;;;12.07;100.00
37132;BME280;23035;50.032;21.978;2023-06-01T00:31:43;66398.94;;;11.63;100.00
37132;BME280;23035;50.032;21.978;2023-06-01T00:36:49;66401.09;;;11.65;100.00
37132;BME280;23035;50.032;21.978;2023-06-01T00:41:53;66470.38;;;12.31;100.00
37132;BME280;23035;50.032;21.978;2023-06-01T00:47:00;66382.38;;;11.50;100.00
37132;BME280;23035;50.032;21.978;2023-06-01T00:52:07;66355.56;;;11.25;100.00
37132;BME280;23035;50.032;21.978;2023-06-01T00:57:12;66290.53;;;10.60;100.00
37132;BME280;23035;50.032;21.978;2023-06-01T01:02:16;66309.84;;;10.79;100.00
37132;BME280;23035;50.032;21.978;2023-06-01T01:07:27;66406.47;;;11.70;100.00
37132;BME280;23035;50.032;21.978;2023-06-01T01:12:40;66448.44;;;12.13;100.00
37132;BME280;23035;50.032;21.978;2023-06-01T01:17:53;66454.78;;;12.16;100.00
37132;BME280;23035;50.032;21.978;2023-06-01T01:23:09;66440.22;;;12.00;100.00
37132;BME280;23035;50.032;21.978;2023-06-01T01:28:40;66366.28;;;11.35;100.00
37132;BME280;23035;50.032;21.978;2023-06-01T01:33:46;66415.84;;;11.87;100.00
37132;BME280;23035;50.032;21.978;2023-06-01T01:38:51;66460.19;;;12.21;100.00
37132;BME280;23035;50.032;21.978;2023-06-01T01:43:57;66498.41;;;12.60;100.00
37132;BME280;23035;50.032;21.978;2023-06-01T01:49:08;66424.28;;;11.90;100.00
37132;BME280;23035;50.032;21.978;2023-06-01T01:54:16;66323.91;;;10.95;100.00
37132;BME280;23035;50.032;21.978;2023-06-01T01:59:23;66314.16;;;10.83;100.00
37132;BME280;23035;50.032;21.978;2023-06-01T02:04:27;66338.44;;;11.11;100.00
37132;BME280;23035;50.032;21.978;2023-06-01T02:09:33;66362.59;;;11.34;100.00
37132;BME280;23035;50.032;21.978;2023-06-01T02:14:38;66336.75;;;11.07;100.00
37132;BME280;23035;50.032;21.978;2023-06-01T02:19:43;66387.75;;;11.55;100.00
37132;BME280;23035;50.032;21.978;2023-06-01T02:24:47;66268.72;;;10.45;100.00
37132;BME280;23035;50.032;21.978;2023-06-01T02:29:52;66327.09;;;10.98;100.00
37132;BME280;23035;50.032;21.978;2023-06-01T02:34:57;66337.22;;;11.05;100.00
37132;BME280;23035;50.032;21.978;2023-06-01T02:40:01;66369.25;;;11.30;100.00
37132;BME280;23035;50.032;21.978;2023-06-01T02:45:08;66359.28;;;11.28;100.00
37132;BME280;23035;50.032;21.978;2023-06-01T02:50:13;66299.31;;;10.74;100.00
37132;BME280;23035;50.032;21.978;2023-06-01T02:55:21;66378.47;;;11.41;100.00
37132;BME280;23035;50.032;21.978;2023-06-01T03:00:37;66346.97;;;11.16;100.00
37132;BME280;23035;50.032;21.978;2023-06-01T03:05:41;66396.94;;;11.66;100.00
37132;BME280;23035;50.032;21.978;2023-06-01T03:11:11;66419.38;;;11.83;100.00
37132;BME280;23035;50.032;21.978;2023-06-01T03:16:17;66392.66;;;11.62;100.00
37132;BME280;23035;50.032;21.978;2023-06-01T03:21:36;66279.28;;;10.50;100.00
37132;BME280;23035;50.032;21.978;2023-06-01T03:26:40;66379.16;;;11.47;100.00
37132;BME280;23035;50.032;21.978;2023-06-01T03:31:46;66364.22;;;11.35;100.00
37132;BME280;23035;50.032;21.978;2023-06-01T03:36:53;66444.06;;;12.06;100.00
37132;BME280;23035;50.032;21.978;2023-06-01T03:41:58;66393.56;;;11.58;100.00
37132;BME280;23035;50.032;21.978;2023-06-01T03:47:04;66423.19;;;11.89;100.00
37132;BME280;23035;50.032;21.978;2023-06-01T03:52:08;66473.06;;;12.33;100.00
37132;BME280;23035;50.032;21.978;2023-06-01T03:57:13;66450.03;;;12.14;100.00
37132;BME280;23035;50.032;21.978;2023-06-01T04:02:18;66522.03;;;12.82;100.00
37132;BME280;23035;50.032;21.978;2023-06-01T04:07:24;66617.19;;;13.72;100.00
37132;BME280;23035;50.032;21.978;2023-06-01T04:12:29;66596.66;;;13.51;100.00
37132;BME280;23035;50.032;21.978;2023-06-01T04:17:36;66633.84;;;13.88;100.00
37132;BME280;23035;50.032;21.978;2023-06-01T04:22:41;66670.56;;;14.28;100.00
37132;BME280;23035;50.032;21.978;2023-06-01T04:27:47;66753.16;;;14.96;99.48
37132;BME280;23035;50.032;21.978;2023-06-01T04:32:54;66790.91;;;15.34;98.45
37132;BME280;23035;50.032;21.978;2023-06-01T04:38:00;66881.47;;;16.22;91.79
37132;BME280;23035;50.032;21.978;2023-06-01T04:43:06;66867.91;;;16.07;92.59
37132;BME280;23035;50.032;21.978;2023-06-01T04:48:15;66915.25;;;16.49;90.10
37132;BME280;23035;50.032;21.978;2023-06-01T04:53:33;66953.22;;;16.92;86.68
37132;BME280;23035;50.032;21.978;2023-06-01T04:58:40;66857.75;;;16.00;92.84
37132;BME280;23035;50.032;21.978;2023-06-01T05:03:50;66897.06;;;16.37;92.93
37132;BME280;23035;50.032;21.978;2023-06-01T05:08:58;66919.63;;;16.56;93.84
37132;BME280;23035;50.032;21.978;2023-06-01T05:14:04;66908.38;;;16.48;93.25
37132;BME280;23035;50.032;21.978;2023-06-01T05:19:11;66973.69;;;17.12;89.45
37132;BME280;23035;50.032;21.978;2023-06-01T05:24:17;67008.56;;;17.40;87.00
37132;BME280;23035;50.032;21.978;2023-06-01T05:29:25;67001.69;;;17.38;88.87
37132;BME280;23035;50.032;21.978;2023-06-01T05:34:31;66978.41;;;17.11;91.36
37132;BME280;23035;50.032;21.978;2023-06-01T05:39:35;67080.94;;;18.11;84.94
37132;BME280;23035;50.032;21.978;2023-06-01T05:44:40;66952.03;;;16.89;89.65
37132;BME280;23035;50.032;21.978;2023-06-01T05:49:46;67074.38;;;18.02;87.03
37132;BME280;23035;50.032;21.978;2023-06-01T05:54:51;67367.06;;;20.78;69.52
37132;BME280;23035;50.032;21.978;2023-06-01T05:59:56;67266.63;;;19.86;71.93
37132;BME280;23035;50.032;21.978;2023-06-01T06:05:03;67227.78;;;19.52;74.75
37132;BME280;23035;50.032;21.978;2023-06-01T06:10:08;67207.75;;;19.30;74.40
37132;BME280;23035;50.032;21.978;2023-06-01T06:15:12;67255.34;;;19.77;74.58
37132;BME280;23035;50.032;21.978;2023-06-01T06:20:18;67337.41;;;20.52;69.10
37132;BME280;23035;50.032;21.978;2023-06-01T06:25:31;67472.56;;;21.80;64.33
37132;BME280;23035;50.032;21.978;2023-06-01T06:30:46;67454.16;;;21.62;63.70
37132;BME280;23035;50.032;21.978;2023-06-01T06:35:56;67433.03;;;21.40;63.57
37132;BME280;23035;50.032;21.978;2023-06-01T06:41:08;67372.47;;;20.83;69.61
37132;BME280;23035;50.032;21.978;2023-06-01T06:46:12;67285.53;;;20.03;71.43
37132;BME280;23035;50.032;21.978;2023-06-01T06:51:18;67247.78;;;19.70;73.10
37132;BME280;23035;50.032;21.978;2023-06-01T06:56:22;67267.25;;;19.89;72.63
37132;BME280;23035;50.032;21.978;2023-06-01T07:01:26;67354.16;;;20.68;67.15
37132;BME280;23035;50.032;21.978;2023-06-01T07:06:33;67213.16;;;19.35;67.66
37132;BME280;23035;50.032;21.978;2023-06-01T07:11:39;67258.53;;;19.78;68.93
37132;BME280;23035;50.032;21.978;2023-06-01T07:16:45;67476.41;;;21.86;60.44
37132;BME280;23035;50.032;21.978;2023-06-01T07:21:51;67373.72;;;20.91;65.79
37132;BME280;23035;50.032;21.978;2023-06-01T07:26:59;67335.78;;;20.51;65.86
37132;BME280;23035;50.032;21.978;2023-06-01T07:32:06;67475.19;;;21.80;59.46
37132;BME280;23035;50.032;21.978;2023-06-01T07:37:11;67330.41;;;20.46;59.93
37132;BME280;23035;50.032;21.978;2023-06-01T07:42:19;67357.47;;;20.74;60.25
37132;BME280;23035;50.032;21.978;2023-06-01T07:47:23;67373.00;;;20.83;62.23
37132;BME280;23035;50.032;21.978;2023-06-01T07:52:30;67372.06;;;20.87;60.85
37132;BME280;23035;50.032;21.978;2023-06-01T07:57:34;67417.88;;;21.26;55.66
37132;BME280;23035;50.032;21.978;2023-06-01T08:02:39;67417.81;;;21.23;56.29
37132;BME280;23035;50.032;21.978;2023-06-01T08:07:46;67438.50;;;21.47;55.23
37132;BME280;23035;50.032;21.978;2023-06-01T08:12:51;67557.50;;;22.59;51.05
37132;BME280;23035;50.032;21.978;2023-06-01T08:17:58;67480.25;;;21.92;46.05
37132;BME280;23035;50.032;21.978;2023-06-01T08:23:04;67584.59;;;22.85;44.36
37132;BME280;23035;50.032;21.978;2023-06-01T08:28:08;67519.03;;;22.21;45.38
37132;BME280;23035;50.032;21.978;2023-06-01T08:33:12;67500.69;;;22.06;43.84
37132;BME280;23035;50.032;21.978;2023-06-01T08:38:19;67516.91;;;22.21;43.85
37132;BME280;23035;50.032;21.978;2023-06-01T08:43:29;67508.81;;;22.14;40.23
37132;BME280;23035;50.032;21.978;2023-06-01T08:48:38;67489.88;;;21.96;39.60
37132;BME280;23035;50.032;21.978;2023-06-01T08:53:49;67454.72;;;21.63;40.14
37132;BME280;23035;50.032;21.978;2023-06-01T08:58:56;67474.25;;;21.84;39.70
37132;BME280;23035;50.032;21.978;2023-06-01T09:04:00;67538.19;;;22.49;40.78
37132;BME280;23035;50.032;21.978;2023-06-01T09:09:06;67472.06;;;21.82;45.16
37132;BME280;23035;50.032;21.978;2023-06-01T09:14:20;67610.06;;;23.11;42.04
37132;BME280;23035;50.032;21.978;2023-06-01T09:19:41;67559.06;;;22.58;45.10
37132;BME280;23035;50.032;21.978;2023-06-01T09:24:56;67565.56;;;22.65;43.53
37132;BME280;23035;50.032;21.978;2023-06-01T09:30:00;67603.56;;;23.05;43.35
37132;BME280;23035;50.032;21.978;2023-06-01T09:35:05;67602.38;;;22.99;43.07
37132;BME280;23035;50.032;21.978;2023-06-01T09:40:19;67731.41;;;24.28;40.12
37132;BME280;23035;50.032;21.978;2023-06-01T09:45:24;67654.34;;;23.48;43.51
37132;BME280;23035;50.032;21.978;2023-06-01T09:50:35;67580.84;;;22.84;47.02
37132;BME280;23035;50.032;21.978;2023-06-01T09:55:56;67616.50;;;23.15;44.81
37132;BME280;23035;50.032;21.978;2023-06-01T10:01:01;67642.00;;;23.41;40.78
37132;BME280;23035;50.032;21.978;2023-06-01T10:06:10;67640.28;;;23.35;40.81
37132;BME280;23035;50.032;21.978;2023-06-01T10:11:15;67694.44;;;23.86;41.05
37132;BME280;23035;50.032;21.978;2023-06-01T10:16:21;67616.59;;;23.20;42.59
37132;BME280;23035;50.032;21.978;2023-06-01T10:21:26;67817.50;;;25.04;38.55
37132;BME280;23035;50.032;21.978;2023-06-01T10:26:36;67711.88;;;24.07;40.76
37132;BME280;23035;50.032;21.978;2023-06-01T10:31:42;67660.50;;;23.61;43.19
37132;BME280;23035;50.032;21.978;2023-06-01T10:37:12;67605.16;;;23.04;44.15
37132;BME280;23035;50.032;21.978;2023-06-01T10:42:37;67700.97;;;23.94;43.80
37132;BME280;23035;50.032;21.978;2023-06-01T10:47:46;67717.16;;;24.07;41.47
37132;BME280;23035;50.032;21.978;2023-06-01T10:52:54;67831.56;;;25.17;40.44
37132;BME280;23035;50.032;21.978;2023-06-01T10:58:21;67740.59;;;24.34;42.36
37132;BME280;23035;50.032;21.978;2023-06-01T11:03:47;67696.59;;;23.88;41.71
37132;BME280;23035;50.032;21.978;2023-06-01T11:08:58;67658.88;;;23.60;42.91
37132;BME280;23035;50.032;21.978;2023-06-01T11:14:10;67855.44;;;25.39;39.80
37132;BME280;23035;50.032;21.978;2023-06-01T11:19:17;67879.38;;;25.67;39.19
37132;BME280;23035;50.032;21.978;2023-06-01T11:24:25;67982.34;;;26.58;35.74
37132;BME280;23035;50.032;21.978;2023-06-01T11:29:30;67962.31;;;26.42;37.92
37132;BME280;23035;50.032;21.978;2023-06-01T11:34:36;68096.81;;;27.63;35.58
37132;BME280;23035;50.032;21.978;2023-06-01T11:39:42;68209.84;;;28.72;32.65
37132;BME280;23035;50.032;21.978;2023-06-01T11:44:58;67997.09;;;26.77;33.66
37132;BME280;23035;50.032;21.978;2023-06-01T11:50:03;68204.94;;;28.67;32.88
37132;BME280;23035;50.032;21.978;2023-06-01T11:55:08;68223.47;;;28.87;32.23
37132;BME280;23035;50.032;21.978;2023-06-01T12:00:15;68266.41;;;29.27;32.00
37132;BME280;23035;50.032;21.978;2023-06-01T12:05:20;68138.28;;;28.12;31.61
37132;BME280;23035;50.032;21.978;2023-06-01T12:10:24;68144.72;;;28.13;31.46
37132;BME280;23035;50.032;21.978;2023-06-01T12:15:30;68203.31;;;28.66;29.95
37132;BME280;23035;50.032;21.978;2023-06-01T12:20:35;68456.69;;;31.03;27.95
37132;BME280;23035;50.032;21.978;2023-06-01T12:25:48;68318.03;;;29.76;29.39
37132;BME280;23035;50.032;21.978;2023-06-01T12:31:09;68309.97;;;29.73;29.56
37132;BME280;23035;50.032;21.978;2023-06-01T12:36:29;68468.66;;;31.17;27.86
37132;BME280;23035;50.032;21.978;2023-06-01T12:41:35;68402.31;;;30.54;28.44
37132;BME280;23035;50.032;21.978;2023-06-01T12:46:41;68413.75;;;30.65;28.98
37132;BME280;23035;50.032;21.978;2023-06-01T12:51:45;68504.03;;;31.47;27.76
37132;BME280;23035;50.032;21.978;2023-06-01T12:56:51;68554.13;;;31.96;28.12
37132;BME280;23035;50.032;21.978;2023-06-01T13:01:56;68267.97;;;29.26;30.16
37132;BME280;23035;50.032;21.978;2023-06-01T13:07:01;68262.56;;;29.21;29.50
37132;BME280;23035;50.032;21.978;2023-06-01T13:12:06;68574.81;;;32.16;27.96
37132;BME280;23035;50.032;21.978;2023-06-01T13:17:13;68369.69;;;30.24;27.61
37132;BME280;23035;50.032;21.978;2023-06-01T13:22:17;68425.75;;;30.79;27.07
37132;BME280;23035;50.032;21.978;2023-06-01T13:27:21;68370.78;;;30.25;26.62
37132;BME280;23035;50.032;21.978;2023-06-01T13:32:27;68546.44;;;31.84;26.33
37132;BME280;23035;50.032;21.978;2023-06-01T13:37:32;68554.13;;;31.96;25.95
37132;BME280;23035;50.032;21.978;2023-06-01T13:42:36;68326.72;;;29.84;27.78
37132;BME280;23035;50.032;21.978;2023-06-01T13:47:42;68532.91;;;31.77;26.92
37132;BME280;23035;50.032;21.978;2023-06-01T13:52:47;68526.34;;;31.71;25.95
37132;BME280;23035;50.032;21.978;2023-06-01T13:57:51;68630.88;;;32.66;25.96
37132;BME280;23035;50.032;21.978;2023-06-01T14:02:57;68535.00;;;31.74;26.36
37132;BME280;23035;50.032;21.978;2023-06-01T14:08:01;68445.81;;;30.95;25.60
37132;BME280;23035;50.032;21.978;2023-06-01T14:13:07;68253.28;;;29.10;28.30
37132;BME280;23035;50.032;21.978;2023-06-01T14:18:12;68222.84;;;28.81;29.25
37132;BME280;23035;50.032;21.978;2023-06-01T14:23:17;68498.56;;;31.42;26.62
37132;BME280;23035;50.032;21.978;2023-06-01T14:28:21;68393.66;;;30.49;27.31
37132;BME280;23035;50.032;21.978;2023-06-01T14:33:27;68480.59;;;31.23;26.18
37132;BME280;23035;50.032;21.978;2023-06-01T14:38:31;68455.03;;;31.01;26.04
37132;BME280;23035;50.032;21.978;2023-06-01T14:43:35;68476.28;;;31.21;26.62
37132;BME280;23035;50.032;21.978;2023-06-01T14:48:43;68371.28;;;30.23;27.59
37132;BME280;23035;50.032;21.978;2023-06-01T14:53:48;68428.97;;;30.79;26.97
37132;BME280;23035;50.032;21.978;2023-06-01T14:58:52;68447.44;;;30.94;27.43
37132;BME280;23035;50.032;21.978;2023-06-01T15:03:57;68501.34;;;31.47;26.44
37132;BME280;23035;50.032;21.978;2023-06-01T15:09:02;68499.66;;;31.43;26.22
37132;BME280;23035;50.032;21.978;2023-06-01T15:14:07;68592.25;;;32.35;25.77
37132;BME280;23035;50.032;21.978;2023-06-01T15:19:12;68413.69;;;30.63;26.17
37132;BME280;23035;50.032;21.978;2023-06-01T15:24:17;68382.19;;;30.36;26.42
37132;BME280;23035;50.032;21.978;2023-06-01T15:29:21;68368.53;;;30.18;26.26
37132;BME280;23035;50.032;21.978;2023-06-01T15:34:26;68411.50;;;30.58;26.71
37132;BME280;23035;50.032;21.978;2023-06-01T15:39:33;68451.78;;;30.98;25.99
37132;BME280;23035;50.032;21.978;2023-06-01T15:44:38;68402.81;;;30.52;26.23
37132;BME280;23035;50.032;21.978;2023-06-01T15:49:45;68083.25;;;27.51;29.95
37132;BME280;23035;50.032;21.978;2023-06-01T15:54:49;68057.28;;;27.31;30.57
37132;BME280;23035;50.032;21.978;2023-06-01T15:59:53;68067.50;;;27.36;30.12
37132;BME280;23035;50.032;21.978;2023-06-01T16:04:59;68044.13;;;27.11;31.18
37132;BME280;23035;50.032;21.978;2023-06-01T16:10:04;67841.31;;;25.26;33.67
37132;BME280;23035;50.032;21.978;2023-06-01T16:15:09;67864.59;;;25.45;34.05
37132;BME280;23035;50.032;21.978;2023-06-01T16:20:15;67866.72;;;25.45;34.24
37132;BME280;23035;50.032;21.978;2023-06-01T16:25:19;67833.22;;;25.19;34.90
37132;BME280;23035;50.032;21.978;2023-06-01T16:30:27;67950.28;;;26.26;33.80
37132;BME280;23035;50.032;21.978;2023-06-01T16:35:32;67878.19;;;25.61;34.99
37132;BME280;23035;50.032;21.978;2023-06-01T16:40:37;67772.50;;;24.62;36.07
37132;BME280;23035;50.032;21.978;2023-06-01T16:45:41;67905.81;;;25.84;34.58
37132;BME280;23035;50.032;21.978;2023-06-01T16:50:47;67859.75;;;25.43;35.18
37132;BME280;23035;50.032;21.978;2023-06-01T16:55:52;67812.00;;;24.96;37.43
37132;BME280;23035;50.032;21.978;2023-06-01T17:00:57;67752.56;;;24.48;38.35
37132;BME280;23035;50.032;21.978;2023-06-01T17:06:02;67702.13;;;23.98;39.46
37132;BME280;23035;50.032;21.978;2023-06-01T17:11:07;67787.66;;;24.76;38.69
37132;BME280;23035;50.032;21.978;2023-06-01T17:16:11;67684.25;;;23.81;39.91
37132;BME280;23035;50.032;21.978;2023-06-01T17:21:17;67768.69;;;24.58;40.16
37132;BME280;23035;50.032;21.978;2023-06-01T17:26:23;67725.78;;;24.13;41.37
37132;BME280;23035;50.032;21.978;2023-06-01T17:31:28;67707.41;;;23.98;42.12
37132;BME280;23035;50.032;21.978;2023-06-01T17:36:34;67680.25;;;23.67;42.21
37132;BME280;23035;50.032;21.978;2023-06-01T17:41:39;67625.06;;;23.18;44.77
37132;BME280;23035;50.032;21.978;2023-06-01T17:46:45;67611.09;;;23.10;45.44
37132;BME280;23035;50.032;21.978;2023-06-01T17:51:51;67643.50;;;23.38;45.27
37132;BME280;23035;50.032;21.978;2023-06-01T17:56:55;67651.69;;;23.48;47.26
37132;BME280;23035;50.032;21.978;2023-06-01T18:01:59;67693.34;;;23.85;47.16
37132;BME280;23035;50.032;21.978;2023-06-01T18:07:05;67648.50;;;23.47;49.58
37132;BME280;23035;50.032;21.978;2023-06-01T18:12:10;67529.97;;;22.36;55.40
37132;BME280;23035;50.032;21.978;2023-06-01T18:17:14;67503.88;;;22.07;58.73
37132;BME280;23035;50.032;21.978;2023-06-01T18:22:19;67492.56;;;21.98;61.57
37132;BME280;23035;50.032;21.978;2023-06-01T18:27:24;67487.16;;;21.93;58.18
37132;BME280;23035;50.032;21.978;2023-06-01T18:32:29;67454.25;;;21.65;60.91
37132;BME280;23035;50.032;21.978;2023-06-01T18:37:35;67315.72;;;20.29;62.44
37132;BME280;23035;50.032;21.978;2023-06-01T18:42:39;67292.06;;;20.12;61.70
37132;BME280;23035;50.032;21.978;2023-06-01T18:47:45;67242.31;;;19.63;66.44
37132;BME280;23035;50.032;21.978;2023-06-01T18:53:05;67231.50;;;19.53;66.37
37132;BME280;23035;50.032;21.978;2023-06-01T18:58:13;67289.31;;;20.07;57.38
37132;BME280;23035;50.032;21.978;2023-06-01T19:03:17;67395.28;;;21.09;56.70
37132;BME280;23035;50.032;21.978;2023-06-01T19:08:23;67307.41;;;20.14;55.70
37132;BME280;23035;50.032;21.978;2023-06-01T19:13:34;67262.72;;;19.77;63.06
37132;BME280;23035;50.032;21.978;2023-06-01T19:18:39;67263.94;;;19.83;60.17
37132;BME280;23035;50.032;21.978;2023-06-01T19:23:49;67191.97;;;19.10;70.37
37132;BME280;23035;50.032;21.978;2023-06-01T19:28:59;67144.56;;;18.68;79.06
37132;BME280;23035;50.032;21.978;2023-06-01T19:34:05;67120.72;;;18.43;86.84
37132;BME280;23035;50.032;21.978;2023-06-01T19:39:11;67080.94;;;18.11;92.72
37132;BME280;23035;50.032;21.978;2023-06-01T19:44:19;67050.59;;;17.77;94.06
37132;BME280;23035;50.032;21.978;2023-06-01T19:49:24;67066.28;;;17.94;96.90
37132;BME280;23035;50.032;21.978;2023-06-01T19:54:29;67147.84;;;18.74;93.26
37132;BME280;23035;50.032;21.978;2023-06-01T19:59:33;67025.81;;;17.56;100.00
37132;BME280;23035;50.032;21.978;2023-06-01T20:04:41;67037.78;;;17.70;100.00
37132;BME280;23035;50.032;21.978;2023-06-01T20:09:46;67037.31;;;17.72;100.00
37132;BME280;23035;50.032;21.978;2023-06-01T20:14:55;67016.19;;;17.49;100.00
37132;BME280;23035;50.032;21.978;2023-06-01T20:19:59;67071.06;;;17.96;100.00
37132;BME280;23035;50.032;21.978;2023-06-01T20:25:06;67097.03;;;18.23;100.00
37132;BME280;23035;50.032;21.978;2023-06-01T20:30:44;67070.47;;;17.93;100.00
37132;BME280;23035;50.032;21.978;2023-06-01T20:36:01;67072.31;;;18.02;100.00
37132;BME280;23035;50.032;21.978;2023-06-01T20:41:12;67107.28;;;18.33;100.00
37132;BME280;23035;50.032;21.978;2023-06-01T20:46:20;67092.19;;;18.19;100.00
37132;BME280;23035;50.032;21.978;2023-06-01T20:51:29;67016.19;;;17.49;100.00
37132;BME280;23035;50.032;21.978;2023-06-01T20:56:36;67096.03;;;18.25;99.39
37132;BME280;23035;50.032;21.978;2023-06-01T21:01:42;67097.72;;;18.29;100.00
37132;BME280;23035;50.032;21.978;2023-06-01T21:06:46;67059.28;;;17.88;100.00
37132;BME280;23035;50.032;21.978;2023-06-01T21:11:54;67036.25;;;17.71;100.00
37132;BME280;23035;50.032;21.978;2023-06-01T21:17:00;67116.53;;;18.44;99.52
37132;BME280;23035;50.032;21.978;2023-06-01T21:22:05;67099.19;;;18.25;100.00
37132;BME280;23035;50.032;21.978;2023-06-01T21:27:11;67096.56;;;18.25;100.00
37132;BME280;23035;50.032;21.978;2023-06-01T21:32:15;67078.75;;;18.09;100.00
37132;BME280;23035;50.032;21.978;2023-06-01T21:37:19;66976.31;;;17.12;100.00
37132;BME280;23035;50.032;21.978;2023-06-01T21:42:25;66975.69;;;17.09;100.00
37132;BME280;23035;50.032;21.978;2023-06-01T21:47:29;66964.44;;;17.01;100.00
37132;BME280;23035;50.032;21.978;2023-06-01T21:52:33;67018.22;;;17.46;100.00
37132;BME280;23035;50.032;21.978;2023-06-01T21:57:39;67024.81;;;17.58;100.00
37132;BME280;23035;50.032;21.978;2023-06-01T22:02:44;67018.91;;;17.52;100.00
37132;BME280;23035;50.032;21.978;2023-06-01T22:07:49;67030.75;;;17.63;100.00
37132;BME280;23035;50.032;21.978;2023-06-01T22:12:54;66999.47;;;17.34;100.00
37132;BME280;23035;50.032;21.978;2023-06-01T22:17:59;67008.03;;;17.39;100.00
37132;BME280;23035;50.032;21.978;2023-06-01T22:23:04;66892.69;;;16.30;100.00
37132;BME280;23035;50.032;21.978;2023-06-01T22:28:12;66905.53;;;16.40;100.00
37132;BME280;23035;50.032;21.978;2023-06-01T22:33:16;66980.13;;;17.18;100.00
37132;BME280;23035;50.032;21.978;2023-06-01T22:38:20;66941.75;;;16.77;100.00
37132;BME280;23035;50.032;21.978;2023-06-01T22:43:26;66971.44;;;17.07;100.00
37132;BME280;23035;50.032;21.978;2023-06-01T22:48:30;66933.19;;;16.71;100.00
37132;BME280;23035;50.032;21.978;2023-06-01T22:53:36;66950.91;;;16.85;100.00
37132;BME280;23035;50.032;21.978;2023-06-01T22:58:42;66985.88;;;17.16;100.00
37132;BME280;23035;50.032;21.978;2023-06-01T23:03:46;66938.97;;;16.72;100.00
37132;BME280;23035;50.032;21.978;2023-06-01T23:08:50;66914.31;;;16.53;100.00
37132;BME280;23035;50.032;21.978;2023-06-01T23:14:02;66919.69;;;16.58;100.00
37132;BME280;23035;50.032;21.978;2023-06-01T23:19:13;66969.84;;;17.06;100.00
37132;BME280;23035;50.032;21.978;2023-06-01T23:24:18;67016.72;;;17.50;100.00
37132;BME280;23035;50.032;21.978;2023-06-01T23:29:24;67012.91;;;17.44;100.00
37132;BME280;23035;50.032;21.978;2023-06-01T23:34:28;67002.78;;;17.39;100.00
37132;BME280;23035;50.032;21.978;2023-06-01T23:39:35;67010.19;;;17.41;100.00
37132;BME280;23035;50.032;21.978;2023-06-01T23:44:41;67007.50;;;17.39;100.00
37132;BME280;23035;50.032;21.978;2023-06-01T23:49:45;66969.28;;;17.05;100.00
37132;BME280;23035;50.032;21.978;2023-06-01T23:54:49;66921.41;;;16.62;100.00
37132;BME280;23035;50.032;21.978;2023-06-01T23:59:55;66829.66;;;15.71;100.00
